Terminal Aerodrome Forecast
Issued by NWS North Platte, NE

Home | Current Version | Previous Version | Graphics & Text | Print | Product List | Glossary On
Versions: 1 2 3 4 5 6 7 8 9 10 11 12 13 14 15 16 17 18 19 20 21
000
FTUS43 KLBF 071700
TAFVTN
TAF
KVTN 071734Z 0718/0818 20010KT P6SM -RA VCTS SCT050CB OVC100
     FM071900 30008KT P6SM VCSH BKN120
     FM072000 33012G19KT P6SM SCT120
     FM080100 35010KT P6SM VCTS SCT050CB
     FM080300 32008KT P6SM SKC
     FM081500 33012G19KT P6SM SKC=

USA.gov is the U.S. government's official web portal to all federal, state and local government web resources and services.